sensor_id;sensor_type;location;lat;lon;timestamp;pressure;altitude;pressure_sealevel;temperature;humidity
50702;BME280;36670;50.094;8.496;2023-08-12T00:00:16;100503.06;;;25.24;52.47
50702;BME280;36670;50.094;8.496;2023-08-12T00:02:42;100500.31;;;25.48;52.34
50702;BME280;36670;50.094;8.496;2023-08-12T00:05:08;100498.16;;;25.33;52.26
50702;BME280;36670;50.094;8.496;2023-08-12T00:07:36;100493.63;;;25.53;52.00
50702;BME280;36670;50.094;8.496;2023-08-12T00:10:01;100488.47;;;25.67;51.90
50702;BME280;36670;50.094;8.496;2023-08-12T00:12:32;100492.38;;;25.29;51.96
50702;BME280;36670;50.094;8.496;2023-08-12T00:14:58;100489.22;;;25.10;53.28
50702;BME280;36670;50.094;8.496;2023-08-12T00:17:23;100489.19;;;24.97;53.19
50702;BME280;36670;50.094;8.496;2023-08-12T00:19:49;100489.50;;;25.17;52.80
50702;BME280;36670;50.094;8.496;2023-08-12T00:22:14;100487.50;;;25.51;52.57
50702;BME280;36670;50.094;8.496;2023-08-12T00:24:40;100483.50;;;25.52;52.67
50702;BME280;36670;50.094;8.496;2023-08-12T00:27:06;100476.53;;;25.49;52.51
50702;BME280;36670;50.094;8.496;2023-08-12T00:29:32;100466.19;;;25.53;52.09
50702;BME280;36670;50.094;8.496;2023-08-12T00:31:58;100471.31;;;25.85;51.87
50702;BME280;36670;50.094;8.496;2023-08-12T00:34:23;100462.44;;;25.74;51.79
50702;BME280;36670;50.094;8.496;2023-08-12T00:36:49;100461.13;;;25.26;53.17
50702;BME280;36670;50.094;8.496;2023-08-12T00:39:14;100464.25;;;24.78;55.08
50702;BME280;36670;50.094;8.496;2023-08-12T00:41:41;100465.28;;;24.74;54.58
50702;BME280;36670;50.094;8.496;2023-08-12T00:44:06;100453.78;;;25.00;53.62
50702;BME280;36670;50.094;8.496;2023-08-12T00:46:35;100449.28;;;24.99;54.25
50702;BME280;36670;50.094;8.496;2023-08-12T00:49:04;100444.84;;;25.10;53.58
50702;BME280;36670;50.094;8.496;2023-08-12T00:51:30;100439.41;;;25.05;53.61
50702;BME280;36670;50.094;8.496;2023-08-12T00:53:57;100443.69;;;25.11;54.39
50702;BME280;36670;50.094;8.496;2023-08-12T00:56:23;100441.66;;;24.78;55.15
50702;BME280;36670;50.094;8.496;2023-08-12T00:58:49;100441.72;;;24.91;54.45
50702;BME280;36670;50.094;8.496;2023-08-12T01:01:17;100440.69;;;24.74;54.95
50702;BME280;36670;50.094;8.496;2023-08-12T01:03:43;100439.81;;;25.16;53.85
50702;BME280;36670;50.094;8.496;2023-08-12T01:06:09;100438.28;;;25.18;53.63
50702;BME280;36670;50.094;8.496;2023-08-12T01:08:35;100438.44;;;25.22;53.47
50702;BME280;36670;50.094;8.496;2023-08-12T01:11:14;100424.69;;;24.99;54.04
50702;BME280;36670;50.094;8.496;2023-08-12T01:13:51;100416.38;;;25.15;53.76
50702;BME280;36670;50.094;8.496;2023-08-12T01:16:18;100431.53;;;24.77;54.53
50702;BME280;36670;50.094;8.496;2023-08-12T01:18:45;100424.06;;;24.94;54.62
50702;BME280;36670;50.094;8.496;2023-08-12T01:21:15;100430.81;;;25.35;54.11
50702;BME280;36670;50.094;8.496;2023-08-12T01:23:42;100429.06;;;25.43;53.77
50702;BME280;36670;50.094;8.496;2023-08-12T01:26:08;100416.03;;;25.63;52.63
50702;BME280;36670;50.094;8.496;2023-08-12T01:28:33;100425.19;;;25.72;53.30
50702;BME280;36670;50.094;8.496;2023-08-12T01:31:27;100432.28;;;25.90;52.81
50702;BME280;36670;50.094;8.496;2023-08-12T01:34:02;100434.06;;;26.08;52.37
50702;BME280;36670;50.094;8.496;2023-08-12T01:36:33;100423.47;;;26.17;51.46
50702;BME280;36670;50.094;8.496;2023-08-12T01:39:01;100425.09;;;25.93;52.43
50702;BME280;36670;50.094;8.496;2023-08-12T01:41:27;100421.19;;;25.98;51.82
50702;BME280;36670;50.094;8.496;2023-08-12T01:43:52;100425.19;;;25.84;52.86
50702;BME280;36670;50.094;8.496;2023-08-12T01:46:18;100423.94;;;26.06;52.34
50702;BME280;36670;50.094;8.496;2023-08-12T01:48:43;100422.03;;;26.23;52.30
50702;BME280;36670;50.094;8.496;2023-08-12T01:51:09;100414.38;;;26.23;52.12
50702;BME280;36670;50.094;8.496;2023-08-12T01:53:34;100413.06;;;26.33;51.63
50702;BME280;36670;50.094;8.496;2023-08-12T01:55:59;100415.63;;;26.38;52.07
50702;BME280;36670;50.094;8.496;2023-08-12T01:58:25;100407.69;;;26.44;51.20
50702;BME280;36670;50.094;8.496;2023-08-12T02:00:52;100406.16;;;26.47;51.47
50702;BME280;36670;50.094;8.496;2023-08-12T02:03:17;100400.81;;;26.17;52.44
50702;BME280;36670;50.094;8.496;2023-08-12T02:05:43;100399.84;;;26.37;51.71
50702;BME280;36670;50.094;8.496;2023-08-12T02:08:08;100408.34;;;26.37;51.46
50702;BME280;36670;50.094;8.496;2023-08-12T02:10:34;100409.13;;;26.50;51.68
50702;BME280;36670;50.094;8.496;2023-08-12T02:12:59;100396.47;;;26.60;51.47
50702;BME280;36670;50.094;8.496;2023-08-12T02:15:25;100413.28;;;26.40;52.14
50702;BME280;36670;50.094;8.496;2023-08-12T02:17:50;100414.66;;;26.47;51.97
50702;BME280;36670;50.094;8.496;2023-08-12T02:20:15;100406.25;;;26.63;51.26
50702;BME280;36670;50.094;8.496;2023-08-12T02:22:41;100422.75;;;26.73;51.66
50702;BME280;36670;50.094;8.496;2023-08-12T02:25:06;100422.28;;;26.71;51.06
50702;BME280;36670;50.094;8.496;2023-08-12T02:27:32;100437.88;;;26.52;51.42
50702;BME280;36670;50.094;8.496;2023-08-12T02:29:57;100434.66;;;26.13;52.95
50702;BME280;36670;50.094;8.496;2023-08-12T02:32:23;100447.03;;;25.96;53.13
50702;BME280;36670;50.094;8.496;2023-08-12T02:34:48;100444.28;;;26.00;53.09
50702;BME280;36670;50.094;8.496;2023-08-12T02:37:13;100457.78;;;26.03;53.50
50702;BME280;36670;50.094;8.496;2023-08-12T02:39:39;100455.84;;;26.32;52.45
50702;BME280;36670;50.094;8.496;2023-08-12T02:42:04;100457.28;;;26.26;52.89
50702;BME280;36670;50.094;8.496;2023-08-12T02:44:30;100463.41;;;26.28;52.84
50702;BME280;36670;50.094;8.496;2023-08-12T02:46:55;100464.59;;;26.39;52.65
50702;BME280;36670;50.094;8.496;2023-08-12T02:49:20;100467.78;;;26.25;53.43
50702;BME280;36670;50.094;8.496;2023-08-12T02:51:46;100482.25;;;26.36;52.83
50702;BME280;36670;50.094;8.496;2023-08-12T02:54:11;100487.47;;;26.21;53.04
50702;BME280;36670;50.094;8.496;2023-08-12T02:56:37;100470.59;;;26.00;53.62
50702;BME280;36670;50.094;8.496;2023-08-12T02:59:02;100465.16;;;25.95;53.98
50702;BME280;36670;50.094;8.496;2023-08-12T03:01:27;100476.38;;;26.04;54.23
50702;BME280;36670;50.094;8.496;2023-08-12T03:03:53;100480.72;;;25.77;54.52
50702;BME280;36670;50.094;8.496;2023-08-12T03:06:18;100478.91;;;25.72;54.86
50702;BME280;36670;50.094;8.496;2023-08-12T03:08:44;100466.41;;;25.48;55.97
50702;BME280;36670;50.094;8.496;2023-08-12T03:11:09;100464.19;;;25.54;56.80
50702;BME280;36670;50.094;8.496;2023-08-12T03:13:34;100457.25;;;25.64;56.17
50702;BME280;36670;50.094;8.496;2023-08-12T03:16:00;100450.91;;;25.67;57.04
50702;BME280;36670;50.094;8.496;2023-08-12T03:18:25;100451.56;;;25.39;58.57
50702;BME280;36670;50.094;8.496;2023-08-12T03:20:51;100449.09;;;25.62;57.35
50702;BME280;36670;50.094;8.496;2023-08-12T03:23:16;100465.53;;;25.94;56.42
50702;BME280;36670;50.094;8.496;2023-08-12T03:25:42;100462.56;;;25.90;56.41
50702;BME280;36670;50.094;8.496;2023-08-12T03:28:07;100460.81;;;26.22;56.22
50702;BME280;36670;50.094;8.496;2023-08-12T03:30:33;100461.56;;;26.07;57.35
50702;BME280;36670;50.094;8.496;2023-08-12T03:32:58;100449.38;;;25.82;57.76
50702;BME280;36670;50.094;8.496;2023-08-12T03:35:24;100449.72;;;25.55;57.99
50702;BME280;36670;50.094;8.496;2023-08-12T03:37:49;100459.22;;;25.51;58.68
50702;BME280;36670;50.094;8.496;2023-08-12T03:40:16;100450.06;;;25.66;58.67
50702;BME280;36670;50.094;8.496;2023-08-12T03:42:41;100452.81;;;25.87;58.33
50702;BME280;36670;50.094;8.496;2023-08-12T03:45:07;100456.94;;;26.02;58.23
50702;BME280;36670;50.094;8.496;2023-08-12T03:47:33;100449.25;;;25.90;58.52
50702;BME280;36670;50.094;8.496;2023-08-12T03:49:58;100432.03;;;25.46;59.32
50702;BME280;36670;50.094;8.496;2023-08-12T03:52:23;100407.94;;;24.82;62.52
50702;BME280;36670;50.094;8.496;2023-08-12T03:54:49;100407.78;;;24.78;62.98
50702;BME280;36670;50.094;8.496;2023-08-12T03:57:14;100399.56;;;24.85;61.56
50702;BME280;36670;50.094;8.496;2023-08-12T03:59:39;100401.97;;;24.62;62.61
50702;BME280;36670;50.094;8.496;2023-08-12T04:02:05;100408.53;;;24.87;61.61
50702;BME280;36670;50.094;8.496;2023-08-12T04:04:33;100400.31;;;24.61;63.12
50702;BME280;36670;50.094;8.496;2023-08-12T04:07:04;100396.78;;;24.43;63.84
50702;BME280;36670;50.094;8.496;2023-08-12T04:09:30;100395.66;;;24.35;64.66
50702;BME280;36670;50.094;8.496;2023-08-12T04:11:55;100394.41;;;24.45;64.59
50702;BME280;36670;50.094;8.496;2023-08-12T04:14:20;100401.31;;;24.35;64.70
50702;BME280;36670;50.094;8.496;2023-08-12T04:16:46;100399.53;;;24.73;63.32
50702;BME280;36670;50.094;8.496;2023-08-12T04:19:11;100404.69;;;25.04;63.01
50702;BME280;36670;50.094;8.496;2023-08-12T04:21:36;100401.47;;;24.94;62.83
50702;BME280;36670;50.094;8.496;2023-08-12T04:24:02;100411.00;;;24.89;63.15
50702;BME280;36670;50.094;8.496;2023-08-12T04:26:27;100405.44;;;25.14;62.65
50702;BME280;36670;50.094;8.496;2023-08-12T04:28:53;100412.59;;;25.11;63.08
50702;BME280;36670;50.094;8.496;2023-08-12T04:31:18;100414.06;;;24.63;62.73
50702;BME280;36670;50.094;8.496;2023-08-12T04:33:43;100399.81;;;24.93;61.50
50702;BME280;36670;50.094;8.496;2023-08-12T04:36:08;100399.34;;;24.91;62.52
50702;BME280;36670;50.094;8.496;2023-08-12T04:38:34;100384.19;;;24.95;61.80
50702;BME280;36670;50.094;8.496;2023-08-12T04:41:00;100387.09;;;24.86;61.65
50702;BME280;36670;50.094;8.496;2023-08-12T04:43:25;100381.31;;;24.70;62.06
50702;BME280;36670;50.094;8.496;2023-08-12T04:45:52;100380.53;;;24.40;63.66
50702;BME280;36670;50.094;8.496;2023-08-12T04:48:17;100376.03;;;23.97;64.95
50702;BME280;36670;50.094;8.496;2023-08-12T04:50:43;100375.63;;;24.07;65.00
50702;BME280;36670;50.094;8.496;2023-08-12T04:53:11;100376.75;;;24.36;63.94
50702;BME280;36670;50.094;8.496;2023-08-12T04:55:37;100365.53;;;24.69;61.88
50702;BME280;36670;50.094;8.496;2023-08-12T04:58:03;100375.47;;;24.88;61.65
50702;BME280;36670;50.094;8.496;2023-08-12T05:00:29;100386.47;;;25.14;61.09
50702;BME280;36670;50.094;8.496;2023-08-12T05:02:55;100383.97;;;25.46;60.68
50702;BME280;36670;50.094;8.496;2023-08-12T05:05:20;100389.88;;;25.66;59.37
50702;BME280;36670;50.094;8.496;2023-08-12T05:07:45;100379.63;;;25.49;59.97
50702;BME280;36670;50.094;8.496;2023-08-12T05:10:15;100385.69;;;25.26;60.87
50702;BME280;36670;50.094;8.496;2023-08-12T05:12:41;100386.50;;;25.27;60.72
50702;BME280;36670;50.094;8.496;2023-08-12T05:15:07;100384.31;;;25.45;59.91
50702;BME280;36670;50.094;8.496;2023-08-12T05:17:33;100388.09;;;25.49;59.71
50702;BME280;36670;50.094;8.496;2023-08-12T05:19:58;100389.06;;;25.65;59.62
50702;BME280;36670;50.094;8.496;2023-08-12T05:22:23;100387.03;;;25.53;60.38
50702;BME280;36670;50.094;8.496;2023-08-12T05:24:49;100387.53;;;25.68;60.03
50702;BME280;36670;50.094;8.496;2023-08-12T05:27:14;100389.63;;;25.71;59.72
50702;BME280;36670;50.094;8.496;2023-08-12T05:29:40;100381.97;;;25.59;59.67
50702;BME280;36670;50.094;8.496;2023-08-12T05:32:06;100390.00;;;25.69;59.42
50702;BME280;36670;50.094;8.496;2023-08-12T05:34:32;100396.47;;;25.95;59.34
50702;BME280;36670;50.094;8.496;2023-08-12T05:36:57;100391.41;;;26.53;58.78
50702;BME280;36670;50.094;8.496;2023-08-12T05:39:22;100397.38;;;26.77;58.38
50702;BME280;36670;50.094;8.496;2023-08-12T05:41:48;100399.88;;;26.94;57.88
50702;BME280;36670;50.094;8.496;2023-08-12T05:44:13;100400.78;;;26.98;58.42
50702;BME280;36670;50.094;8.496;2023-08-12T05:46:38;100397.56;;;27.92;57.25
50702;BME280;36670;50.094;8.496;2023-08-12T05:49:04;100385.75;;;29.23;55.88
50702;BME280;36670;50.094;8.496;2023-08-12T05:51:29;100394.50;;;30.38;52.66
50702;BME280;36670;50.094;8.496;2023-08-12T05:53:54;100394.09;;;31.41;51.22
50702;BME280;36670;50.094;8.496;2023-08-12T05:56:20;100406.69;;;31.33;49.26
50702;BME280;36670;50.094;8.496;2023-08-12T05:58:45;100409.38;;;30.24;50.58
50702;BME280;36670;50.094;8.496;2023-08-12T06:01:10;100419.59;;;28.89;52.22
50702;BME280;36670;50.094;8.496;2023-08-12T06:03:36;100418.88;;;28.73;52.37
50702;BME280;36670;50.094;8.496;2023-08-12T06:06:01;100420.88;;;28.17;53.34
50702;BME280;36670;50.094;8.496;2023-08-12T06:08:27;100423.97;;;28.64;52.60
50702;BME280;36670;50.094;8.496;2023-08-12T06:10:56;100420.06;;;28.72;52.96
50702;BME280;36670;50.094;8.496;2023-08-12T06:13:22;100416.75;;;28.89;52.63
50702;BME280;36670;50.094;8.496;2023-08-12T06:15:47;100433.81;;;29.28;53.27
50702;BME280;36670;50.094;8.496;2023-08-12T06:18:15;100423.22;;;30.25;52.32
50702;BME280;36670;50.094;8.496;2023-08-12T06:20:40;100417.16;;;30.88;49.54
50702;BME280;36670;50.094;8.496;2023-08-12T06:23:06;100417.69;;;30.36;50.22
50702;BME280;36670;50.094;8.496;2023-08-12T06:25:31;100426.44;;;30.81;50.26
50702;BME280;36670;50.094;8.496;2023-08-12T06:27:56;100438.88;;;31.34;48.29
50702;BME280;36670;50.094;8.496;2023-08-12T06:30:23;100440.16;;;31.02;47.90
50702;BME280;36670;50.094;8.496;2023-08-12T06:32:48;100435.97;;;31.30;47.08
50702;BME280;36670;50.094;8.496;2023-08-12T06:35:14;100431.38;;;31.18;47.35
50702;BME280;36670;50.094;8.496;2023-08-12T06:37:39;100431.47;;;31.70;46.34
50702;BME280;36670;50.094;8.496;2023-08-12T06:40:06;100424.59;;;32.27;45.40
50702;BME280;36670;50.094;8.496;2023-08-12T06:42:31;100427.84;;;32.29;46.28
50702;BME280;36670;50.094;8.496;2023-08-12T06:44:58;100414.25;;;32.78;44.46
50702;BME280;36670;50.094;8.496;2023-08-12T06:47:23;100422.47;;;33.01;43.74
50702;BME280;36670;50.094;8.496;2023-08-12T06:49:49;100421.09;;;32.59;44.41
50702;BME280;36670;50.094;8.496;2023-08-12T06:52:14;100423.22;;;32.13;44.75
50702;BME280;36670;50.094;8.496;2023-08-12T06:54:41;100424.22;;;31.76;44.78
50702;BME280;36670;50.094;8.496;2023-08-12T06:57:06;100422.97;;;30.98;46.12
50702;BME280;36670;50.094;8.496;2023-08-12T06:59:32;100432.19;;;31.19;45.57
50702;BME280;36670;50.094;8.496;2023-08-12T07:01:57;100436.41;;;30.64;46.81
50702;BME280;36670;50.094;8.496;2023-08-12T07:04:22;100436.09;;;30.16;46.25
50702;BME280;36670;50.094;8.496;2023-08-12T07:06:48;100445.34;;;28.77;49.65
50702;BME280;36670;50.094;8.496;2023-08-12T07:09:13;100443.81;;;30.15;48.73
50702;BME280;36670;50.094;8.496;2023-08-12T07:11:39;100430.63;;;30.30;48.68
50702;BME280;36670;50.094;8.496;2023-08-12T07:14:04;100436.63;;;31.16;47.44
50702;BME280;36670;50.094;8.496;2023-08-12T07:16:30;100431.34;;;31.56;46.97
50702;BME280;36670;50.094;8.496;2023-08-12T07:18:55;100439.66;;;30.96;47.72
50702;BME280;36670;50.094;8.496;2023-08-12T07:21:20;100430.41;;;30.16;48.92
50702;BME280;36670;50.094;8.496;2023-08-12T07:23:48;100424.22;;;30.10;49.17
50702;BME280;36670;50.094;8.496;2023-08-12T07:26:14;100425.22;;;29.48;49.62
50702;BME280;36670;50.094;8.496;2023-08-12T07:28:39;100434.69;;;30.02;49.17
50702;BME280;36670;50.094;8.496;2023-08-12T07:31:05;100434.50;;;30.45;49.60
50702;BME280;36670;50.094;8.496;2023-08-12T07:33:30;100429.25;;;30.47;48.89
50702;BME280;36670;50.094;8.496;2023-08-12T07:35:55;100427.31;;;30.55;48.20
50702;BME280;36670;50.094;8.496;2023-08-12T07:38:21;100424.84;;;30.84;49.01
50702;BME280;36670;50.094;8.496;2023-08-12T07:40:46;100433.69;;;31.46;47.23
50702;BME280;36670;50.094;8.496;2023-08-12T07:43:13;100430.84;;;31.09;47.82
50702;BME280;36670;50.094;8.496;2023-08-12T07:45:38;100422.44;;;31.61;47.57
50702;BME280;36670;50.094;8.496;2023-08-12T07:48:04;100423.78;;;31.74;46.04
50702;BME280;36670;50.094;8.496;2023-08-12T07:50:29;100428.31;;;31.41;46.35
50702;BME280;36670;50.094;8.496;2023-08-12T07:52:55;100432.13;;;30.81;47.23
50702;BME280;36670;50.094;8.496;2023-08-12T07:55:20;100432.97;;;30.81;47.40
50702;BME280;36670;50.094;8.496;2023-08-12T07:57:45;100424.91;;;31.66;47.20
50702;BME280;36670;50.094;8.496;2023-08-12T08:00:11;100407.22;;;31.94;45.38
50702;BME280;36670;50.094;8.496;2023-08-12T08:02:37;100415.09;;;30.85;47.10
50702;BME280;36670;50.094;8.496;2023-08-12T08:05:03;100408.84;;;30.75;46.78
50702;BME280;36670;50.094;8.496;2023-08-12T08:07:29;100415.84;;;30.21;47.88
50702;BME280;36670;50.094;8.496;2023-08-12T08:09:54;100418.69;;;30.47;48.09
50702;BME280;36670;50.094;8.496;2023-08-12T08:12:20;100417.91;;;30.51;48.76
50702;BME280;36670;50.094;8.496;2023-08-12T08:14:45;100407.75;;;30.53;48.56
50702;BME280;36670;50.094;8.496;2023-08-12T08:17:11;100408.63;;;30.57;48.25
50702;BME280;36670;50.094;8.496;2023-08-12T08:19:36;100420.97;;;30.65;48.13
50702;BME280;36670;50.094;8.496;2023-08-12T08:22:05;100420.94;;;30.99;47.48
50702;BME280;36670;50.094;8.496;2023-08-12T08:24:30;100434.16;;;31.11;48.38
50702;BME280;36670;50.094;8.496;2023-08-12T08:26:56;100421.63;;;31.60;47.59
50702;BME280;36670;50.094;8.496;2023-08-12T08:29:21;100422.22;;;31.84;48.02
50702;BME280;36670;50.094;8.496;2023-08-12T08:31:46;100421.28;;;32.25;47.88
50702;BME280;36670;50.094;8.496;2023-08-12T08:34:12;100427.41;;;32.23;46.82
50702;BME280;36670;50.094;8.496;2023-08-12T08:36:37;100427.81;;;32.18;46.89
50702;BME280;36670;50.094;8.496;2023-08-12T08:39:03;100415.91;;;32.12;45.73
50702;BME280;36670;50.094;8.496;2023-08-12T08:41:30;100401.50;;;31.94;45.42
50702;BME280;36670;50.094;8.496;2023-08-12T08:44:02;100416.72;;;32.90;45.21
50702;BME280;36670;50.094;8.496;2023-08-12T08:46:29;100413.09;;;32.93;44.52
50702;BME280;36670;50.094;8.496;2023-08-12T08:48:55;100406.22;;;33.23;43.54
50702;BME280;36670;50.094;8.496;2023-08-12T08:51:24;100406.06;;;32.76;44.31
50702;BME280;36670;50.094;8.496;2023-08-12T08:53:53;100402.84;;;32.92;44.80
50702;BME280;36670;50.094;8.496;2023-08-12T08:56:19;100396.53;;;32.50;44.94
50702;BME280;36670;50.094;8.496;2023-08-12T08:58:45;100398.78;;;32.93;44.04
50702;BME280;36670;50.094;8.496;2023-08-12T09:01:15;100395.50;;;32.98;44.29
50702;BME280;36670;50.094;8.496;2023-08-12T09:03:43;100394.47;;;31.36;45.41
50702;BME280;36670;50.094;8.496;2023-08-12T09:06:09;100378.19;;;31.85;45.40
50702;BME280;36670;50.094;8.496;2023-08-12T09:08:36;100377.81;;;31.94;46.03
50702;BME280;36670;50.094;8.496;2023-08-12T09:11:02;100381.56;;;31.53;46.72
50702;BME280;36670;50.094;8.496;2023-08-12T09:13:29;100391.06;;;31.61;47.39
50702;BME280;36670;50.094;8.496;2023-08-12T09:15:55;100394.66;;;31.58;47.20
50702;BME280;36670;50.094;8.496;2023-08-12T09:18:20;100410.75;;;31.36;48.37
50702;BME280;36670;50.094;8.496;2023-08-12T09:20:51;100410.91;;;31.50;48.56
50702;BME280;36670;50.094;8.496;2023-08-12T09:23:18;100407.03;;;31.31;48.50
50702;BME280;36670;50.094;8.496;2023-08-12T09:25:44;100402.63;;;31.82;48.36
50702;BME280;36670;50.094;8.496;2023-08-12T09:28:10;100399.44;;;31.43;47.94
50702;BME280;36670;50.094;8.496;2023-08-12T09:30:35;100387.31;;;31.57;48.39
50702;BME280;36670;50.094;8.496;2023-08-12T09:33:03;100387.03;;;31.69;48.63
50702;BME280;36670;50.094;8.496;2023-08-12T09:37:58;100375.34;;;31.85;47.90
50702;BME280;36670;50.094;8.496;2023-08-12T09:40:23;100362.72;;;32.60;47.43
50702;BME280;36670;50.094;8.496;2023-08-12T09:42:49;100371.50;;;32.19;47.02
50702;BME280;36670;50.094;8.496;2023-08-12T09:45:15;100378.03;;;33.36;46.36
50702;BME280;36670;50.094;8.496;2023-08-12T09:47:42;100384.94;;;33.17;45.47
50702;BME280;36670;50.094;8.496;2023-08-12T09:50:08;100391.94;;;33.74;43.81
50702;BME280;36670;50.094;8.496;2023-08-12T09:52:34;100387.81;;;34.14;43.56
50702;BME280;36670;50.094;8.496;2023-08-12T09:55:02;100382.53;;;33.69;43.98
50702;BME280;36670;50.094;8.496;2023-08-12T09:57:32;100385.81;;;33.86;44.29
50702;BME280;36670;50.094;8.496;2023-08-12T09:59:59;100384.97;;;33.64;44.34
50702;BME280;36670;50.094;8.496;2023-08-12T10:02:25;100380.91;;;33.40;44.44
50702;BME280;36670;50.094;8.496;2023-08-12T10:04:53;100382.53;;;33.44;43.73
50702;BME280;36670;50.094;8.496;2023-08-12T10:07:21;100390.56;;;32.81;43.97
50702;BME280;36670;50.094;8.496;2023-08-12T10:09:47;100390.56;;;32.84;44.23
50702;BME280;36670;50.094;8.496;2023-08-12T10:12:15;100404.34;;;32.57;45.04
50702;BME280;36670;50.094;8.496;2023-08-12T10:14:40;100430.75;;;32.32;45.75
50702;BME280;36670;50.094;8.496;2023-08-12T10:17:06;100430.06;;;31.98;46.42
50702;BME280;36670;50.094;8.496;2023-08-12T10:19:35;100447.75;;;31.62;46.68
50702;BME280;36670;50.094;8.496;2023-08-12T10:22:02;100464.50;;;30.99;48.49
50702;BME280;36670;50.094;8.496;2023-08-12T10:24:29;100472.72;;;31.01;48.63
50702;BME280;36670;50.094;8.496;2023-08-12T10:26:54;100479.38;;;30.82;49.36
50702;BME280;36670;50.094;8.496;2023-08-12T10:29:23;100486.44;;;30.08;50.91
50702;BME280;36670;50.094;8.496;2023-08-12T10:31:50;100487.56;;;29.80;53.11
50702;BME280;36670;50.094;8.496;2023-08-12T10:34:23;100495.50;;;29.71;52.17
50702;BME280;36670;50.094;8.496;2023-08-12T10:36:54;100483.72;;;29.49;53.82
50702;BME280;36670;50.094;8.496;2023-08-12T10:39:24;100460.59;;;28.88;54.83
50702;BME280;36670;50.094;8.496;2023-08-12T10:41:51;100446.28;;;27.78;59.13
50702;BME280;36670;50.094;8.496;2023-08-12T10:44:20;100445.97;;;28.15;56.78
50702;BME280;36670;50.094;8.496;2023-08-12T10:46:50;100436.00;;;28.76;55.78
50702;BME280;36670;50.094;8.496;2023-08-12T10:49:19;100429.88;;;28.03;57.57
50702;BME280;36670;50.094;8.496;2023-08-12T10:54:27;100423.19;;;28.67;56.92
50702;BME280;36670;50.094;8.496;2023-08-12T10:57:10;100412.72;;;28.90;56.12
50702;BME280;36670;50.094;8.496;2023-08-12T11:02:28;100418.38;;;29.10;55.30
50702;BME280;36670;50.094;8.496;2023-08-12T11:04:55;100400.97;;;28.92;55.67
50702;BME280;36670;50.094;8.496;2023-08-12T11:07:28;100400.84;;;28.65;56.58
50702;BME280;36670;50.094;8.496;2023-08-12T11:09:59;100391.34;;;28.57;57.45
50702;BME280;36670;50.094;8.496;2023-08-12T11:12:30;100389.72;;;28.76;56.79
50702;BME280;36670;50.094;8.496;2023-08-12T11:14:58;100389.69;;;28.95;56.54
50702;BME280;36670;50.094;8.496;2023-08-12T11:17:37;100373.06;;;28.19;58.56
50702;BME280;36670;50.094;8.496;2023-08-12T11:20:05;100362.72;;;28.27;59.09
50702;BME280;36670;50.094;8.496;2023-08-12T11:22:33;100364.56;;;28.58;58.39
50702;BME280;36670;50.094;8.496;2023-08-12T11:25:00;100364.03;;;28.53;59.22
50702;BME280;36670;50.094;8.496;2023-08-12T11:27:26;100359.50;;;28.87;58.95
50702;BME280;36670;50.094;8.496;2023-08-12T11:29:52;100344.00;;;29.51;58.48
50702;BME280;36670;50.094;8.496;2023-08-12T11:32:18;100342.03;;;29.82;57.44
50702;BME280;36670;50.094;8.496;2023-08-12T11:34:44;100332.06;;;29.41;57.71
50702;BME280;36670;50.094;8.496;2023-08-12T11:37:09;100318.63;;;29.38;57.92
50702;BME280;36670;50.094;8.496;2023-08-12T11:39:35;100316.84;;;29.84;56.91
50702;BME280;36670;50.094;8.496;2023-08-12T11:42:00;100321.41;;;29.61;56.82
50702;BME280;36670;50.094;8.496;2023-08-12T11:44:26;100352.84;;;29.95;55.90
50702;BME280;36670;50.094;8.496;2023-08-12T11:46:51;100358.47;;;29.92;56.05
50702;BME280;36670;50.094;8.496;2023-08-12T11:49:17;100360.44;;;29.38;57.39
50702;BME280;36670;50.094;8.496;2023-08-12T11:51:43;100379.84;;;28.70;58.45
50702;BME280;36670;50.094;8.496;2023-08-12T11:54:10;100387.16;;;28.71;58.62
50702;BME280;36670;50.094;8.496;2023-08-12T11:56:36;100389.09;;;28.47;58.58
50702;BME280;36670;50.094;8.496;2023-08-12T11:59:02;100392.69;;;28.08;59.35
50702;BME280;36670;50.094;8.496;2023-08-12T12:01:27;100416.94;;;28.22;59.37
50702;BME280;36670;50.094;8.496;2023-08-12T12:03:54;100410.94;;;28.63;59.20
50702;BME280;36670;50.094;8.496;2023-08-12T12:06:30;100415.31;;;28.40;59.65
50702;BME280;36670;50.094;8.496;2023-08-12T12:08:56;100408.81;;;28.04;60.39
50702;BME280;36670;50.094;8.496;2023-08-12T12:11:21;100406.72;;;27.85;60.80
50702;BME280;36670;50.094;8.496;2023-08-12T12:13:46;100409.53;;;28.17;60.80
50702;BME280;36670;50.094;8.496;2023-08-12T12:16:12;100418.00;;;28.33;60.39
50702;BME280;36670;50.094;8.496;2023-08-12T12:18:38;100417.47;;;28.47;60.54
50702;BME280;36670;50.094;8.496;2023-08-12T12:21:03;100418.75;;;28.14;60.82
50702;BME280;36670;50.094;8.496;2023-08-12T12:23:30;100415.66;;;28.19;60.83
50702;BME280;36670;50.094;8.496;2023-08-12T12:26:00;100420.81;;;28.33;61.20
50702;BME280;36670;50.094;8.496;2023-08-12T12:28:27;100413.75;;;28.43;60.55
50702;BME280;36670;50.094;8.496;2023-08-12T12:30:52;100403.09;;;29.18;59.46
50702;BME280;36670;50.094;8.496;2023-08-12T12:33:17;100400.06;;;28.29;60.59
50702;BME280;36670;50.094;8.496;2023-08-12T12:35:43;100399.03;;;28.57;60.40
50702;BME280;36670;50.094;8.496;2023-08-12T12:38:09;100391.94;;;28.86;60.07
50702;BME280;36670;50.094;8.496;2023-08-12T12:40:34;100400.19;;;29.34;59.46
50702;BME280;36670;50.094;8.496;2023-08-12T12:43:00;100395.44;;;29.65;57.36
50702;BME280;36670;50.094;8.496;2023-08-12T12:45:25;100397.13;;;29.93;57.36
50702;BME280;36670;50.094;8.496;2023-08-12T12:47:50;100400.25;;;30.11;56.07
50702;BME280;36670;50.094;8.496;2023-08-12T12:50:15;100399.34;;;29.80;56.28
50702;BME280;36670;50.094;8.496;2023-08-12T12:52:42;100396.81;;;29.52;56.94